sensor_id;sensor_type;location;lat;lon;timestamp;pressure;altitude;pressure_sealevel;temperature;humidity
20622;BME280;10470;42.670;23.354;2022-10-16T00:00:18;95460.16;;;10.34;100.00
20622;BME280;10470;42.670;23.354;2022-10-16T00:02:43;95467.94;;;10.36;100.00
20622;BME280;10470;42.670;23.354;2022-10-16T00:05:09;95466.91;;;10.30;100.00
20622;BME280;10470;42.670;23.354;2022-10-16T00:07:35;95463.84;;;10.11;100.00
20622;BME280;10470;42.670;23.354;2022-10-16T00:10:00;95478.91;;;10.16;100.00
20622;BME280;10470;42.670;23.354;2022-10-16T00:12:26;95478.03;;;10.19;100.00
20622;BME280;10470;42.670;23.354;2022-10-16T00:14:51;95481.22;;;10.17;100.00
20622;BME280;10470;42.670;23.354;2022-10-16T00:17:17;95477.47;;;9.95;100.00
20622;BME280;10470;42.670;23.354;2022-10-16T00:19:42;95482.16;;;9.94;100.00
20622;BME280;10470;42.670;23.354;2022-10-16T00:22:08;95475.50;;;9.95;100.00
20622;BME280;10470;42.670;23.354;2022-10-16T00:24:33;95480.44;;;10.00;100.00
20622;BME280;10470;42.670;23.354;2022-10-16T00:26:59;95476.72;;;9.94;100.00
20622;BME280;10470;42.670;23.354;2022-10-16T00:29:24;95485.53;;;9.98;100.00
20622;BME280;10470;42.670;23.354;2022-10-16T00:31:50;95476.88;;;9.87;100.00
20622;BME280;10470;42.670;23.354;2022-10-16T00:34:15;95492.44;;;9.87;100.00
20622;BME280;10470;42.670;23.354;2022-10-16T00:36:41;95485.97;;;9.80;100.00
20622;BME280;10470;42.670;23.354;2022-10-16T00:39:06;95483.75;;;9.75;100.00
20622;BME280;10470;42.670;23.354;2022-10-16T00:41:32;95492.59;;;9.79;100.00
20622;BME280;10470;42.670;23.354;2022-10-16T00:44:00;95492.00;;;9.88;100.00
20622;BME280;10470;42.670;23.354;2022-10-16T00:46:41;95489.88;;;9.79;100.00
20622;BME280;10470;42.670;23.354;2022-10-16T00:54:15;95475.81;;;9.48;100.00
20622;BME280;10470;42.670;23.354;2022-10-16T00:56:43;95479.75;;;9.63;100.00
20622;BME280;10470;42.670;23.354;2022-10-16T00:59:16;95480.66;;;9.57;100.00
20622;BME280;10470;42.670;23.354;2022-10-16T01:01:44;95478.78;;;9.37;100.00
20622;BME280;10470;42.670;23.354;2022-10-16T01:04:10;95487.19;;;9.43;100.00
20622;BME280;10470;42.670;23.354;2022-10-16T01:09:23;95503.28;;;9.54;100.00
20622;BME280;10470;42.670;23.354;2022-10-16T01:11:57;95503.13;;;9.25;100.00
20622;BME280;10470;42.670;23.354;2022-10-16T01:14:40;95490.56;;;9.31;100.00
20622;BME280;10470;42.670;23.354;2022-10-16T01:17:16;95497.38;;;9.39;100.00
20622;BME280;10470;42.670;23.354;2022-10-16T01:20:08;95489.03;;;9.30;100.00
20622;BME280;10470;42.670;23.354;2022-10-16T01:22:55;95492.34;;;9.21;100.00
20622;BME280;10470;42.670;23.354;2022-10-16T01:25:49;95486.31;;;9.30;100.00
20622;BME280;10470;42.670;23.354;2022-10-16T01:28:19;95480.69;;;9.21;100.00
20622;BME280;10470;42.670;23.354;2022-10-16T01:30:47;95474.94;;;9.18;100.00
20622;BME280;10470;42.670;23.354;2022-10-16T01:33:21;95481.75;;;9.27;100.00
20622;BME280;10470;42.670;23.354;2022-10-16T01:35:53;95478.03;;;9.37;100.00
20622;BME280;10470;42.670;23.354;2022-10-16T01:38:33;95476.56;;;9.32;100.00
20622;BME280;10470;42.670;23.354;2022-10-16T01:41:24;95476.84;;;9.18;100.00
20622;BME280;10470;42.670;23.354;2022-10-16T01:44:02;95477.81;;;9.28;100.00
20622;BME280;10470;42.670;23.354;2022-10-16T01:46:30;95489.94;;;9.23;100.00
20622;BME280;10470;42.670;23.354;2022-10-16T01:48:57;95494.09;;;9.11;100.00
20622;BME280;10470;42.670;23.354;2022-10-16T01:51:25;95491.44;;;9.08;100.00
20622;BME280;10470;42.670;23.354;2022-10-16T01:53:57;95493.59;;;9.16;100.00
20622;BME280;10470;42.670;23.354;2022-10-16T01:56:25;95496.31;;;8.96;100.00
20622;BME280;10470;42.670;23.354;2022-10-16T01:58:58;95492.72;;;9.03;100.00
20622;BME280;10470;42.670;23.354;2022-10-16T02:01:28;95495.06;;;9.01;100.00
20622;BME280;10470;42.670;23.354;2022-10-16T02:03:58;95489.16;;;9.06;100.00
20622;BME280;10470;42.670;23.354;2022-10-16T02:06:27;95503.72;;;8.96;100.00
20622;BME280;10470;42.670;23.354;2022-10-16T02:08:53;95499.13;;;8.93;100.00
20622;BME280;10470;42.670;23.354;2022-10-16T02:11:19;95494.81;;;8.95;100.00
20622;BME280;10470;42.670;23.354;2022-10-16T02:16:45;95504.34;;;9.04;100.00
20622;BME280;10470;42.670;23.354;2022-10-16T02:19:13;95511.38;;;9.01;100.00
20622;BME280;10470;42.670;23.354;2022-10-16T02:24:28;95487.34;;;8.80;100.00
20622;BME280;10470;42.670;23.354;2022-10-16T02:27:05;95507.91;;;9.01;100.00
20622;BME280;10470;42.670;23.354;2022-10-16T02:29:36;95513.13;;;8.91;100.00
20622;BME280;10470;42.670;23.354;2022-10-16T02:32:06;95520.56;;;9.07;100.00
20622;BME280;10470;42.670;23.354;2022-10-16T02:34:34;95522.25;;;9.01;100.00
20622;BME280;10470;42.670;23.354;2022-10-16T02:37:01;95510.34;;;8.95;100.00
20622;BME280;10470;42.670;23.354;2022-10-16T02:39:29;95509.91;;;8.96;100.00
20622;BME280;10470;42.670;23.354;2022-10-16T02:41:55;95517.31;;;8.96;100.00
20622;BME280;10470;42.670;23.354;2022-10-16T02:44:20;95511.66;;;8.87;100.00
20622;BME280;10470;42.670;23.354;2022-10-16T02:46:46;95522.41;;;8.94;100.00
20622;BME280;10470;42.670;23.354;2022-10-16T02:49:11;95511.88;;;8.76;100.00
20622;BME280;10470;42.670;23.354;2022-10-16T02:51:37;95519.53;;;8.81;100.00
20622;BME280;10470;42.670;23.354;2022-10-16T02:54:03;95526.34;;;8.89;100.00
20622;BME280;10470;42.670;23.354;2022-10-16T02:56:29;95531.38;;;8.91;100.00
20622;BME280;10470;42.670;23.354;2022-10-16T02:58:55;95531.75;;;8.93;100.00
20622;BME280;10470;42.670;23.354;2022-10-16T03:01:21;95528.81;;;8.84;100.00
20622;BME280;10470;42.670;23.354;2022-10-16T03:03:46;95539.66;;;8.84;100.00
20622;BME280;10470;42.670;23.354;2022-10-16T03:06:12;95533.41;;;8.87;100.00
20622;BME280;10470;42.670;23.354;2022-10-16T03:08:38;95541.63;;;8.83;100.00
20622;BME280;10470;42.670;23.354;2022-10-16T03:11:03;95540.09;;;8.82;100.00
20622;BME280;10470;42.670;23.354;2022-10-16T03:13:28;95543.78;;;8.92;100.00
20622;BME280;10470;42.670;23.354;2022-10-16T03:15:54;95537.22;;;8.89;100.00
20622;BME280;10470;42.670;23.354;2022-10-16T03:18:19;95551.84;;;8.75;100.00
20622;BME280;10470;42.670;23.354;2022-10-16T03:20:45;95550.34;;;8.74;100.00
20622;BME280;10470;42.670;23.354;2022-10-16T03:23:10;95552.13;;;8.81;100.00
20622;BME280;10470;42.670;23.354;2022-10-16T03:25:36;95546.16;;;8.46;100.00
20622;BME280;10470;42.670;23.354;2022-10-16T03:28:02;95549.53;;;8.54;100.00
20622;BME280;10470;42.670;23.354;2022-10-16T03:30:28;95552.88;;;8.38;100.00
20622;BME280;10470;42.670;23.354;2022-10-16T03:32:53;95554.19;;;8.53;100.00
20622;BME280;10470;42.670;23.354;2022-10-16T03:35:23;95550.53;;;8.40;100.00
20622;BME280;10470;42.670;23.354;2022-10-16T03:37:49;95548.44;;;8.24;100.00
20622;BME280;10470;42.670;23.354;2022-10-16T03:40:15;95559.88;;;8.39;100.00
20622;BME280;10470;42.670;23.354;2022-10-16T03:42:44;95554.47;;;8.36;100.00
20622;BME280;10470;42.670;23.354;2022-10-16T03:45:10;95553.00;;;8.31;100.00
20622;BME280;10470;42.670;23.354;2022-10-16T03:47:36;95550.81;;;8.22;100.00
20622;BME280;10470;42.670;23.354;2022-10-16T03:50:02;95552.69;;;8.25;100.00
20622;BME280;10470;42.670;23.354;2022-10-16T03:52:29;95543.47;;;8.19;100.00
20622;BME280;10470;42.670;23.354;2022-10-16T03:54:54;95545.72;;;8.24;100.00
20622;BME280;10470;42.670;23.354;2022-10-16T03:57:20;95540.75;;;8.19;100.00
20622;BME280;10470;42.670;23.354;2022-10-16T03:59:46;95545.31;;;8.26;100.00
20622;BME280;10470;42.670;23.354;2022-10-16T04:02:12;95545.59;;;8.08;100.00
20622;BME280;10470;42.670;23.354;2022-10-16T04:04:38;95539.34;;;8.11;100.00
20622;BME280;10470;42.670;23.354;2022-10-16T04:07:03;95537.00;;;8.13;100.00
20622;BME280;10470;42.670;23.354;2022-10-16T04:09:29;95541.59;;;8.16;100.00
20622;BME280;10470;42.670;23.354;2022-10-16T04:11:54;95549.38;;;8.14;100.00
20622;BME280;10470;42.670;23.354;2022-10-16T04:14:20;95546.19;;;8.19;100.00
20622;BME280;10470;42.670;23.354;2022-10-16T04:16:45;95547.03;;;8.16;100.00
20622;BME280;10470;42.670;23.354;2022-10-16T04:19:11;95544.88;;;8.04;100.00
20622;BME280;10470;42.670;23.354;2022-10-16T04:21:36;95555.81;;;8.00;100.00
20622;BME280;10470;42.670;23.354;2022-10-16T04:24:03;95547.56;;;8.07;100.00
20622;BME280;10470;42.670;23.354;2022-10-16T04:26:29;95548.22;;;8.15;100.00
20622;BME280;10470;42.670;23.354;2022-10-16T04:28:54;95549.03;;;8.12;100.00
20622;BME280;10470;42.670;23.354;2022-10-16T04:31:20;95552.50;;;8.13;100.00
20622;BME280;10470;42.670;23.354;2022-10-16T04:33:46;95557.00;;;7.99;100.00
20622;BME280;10470;42.670;23.354;2022-10-16T04:36:12;95555.13;;;7.93;100.00
20622;BME280;10470;42.670;23.354;2022-10-16T04:38:38;95562.28;;;8.06;100.00
20622;BME280;10470;42.670;23.354;2022-10-16T04:41:05;95559.06;;;8.15;100.00
20622;BME280;10470;42.670;23.354;2022-10-16T04:43:30;95570.41;;;8.10;100.00
20622;BME280;10470;42.670;23.354;2022-10-16T04:45:56;95565.91;;;8.00;100.00
20622;BME280;10470;42.670;23.354;2022-10-16T04:48:21;95563.34;;;7.89;100.00
20622;BME280;10470;42.670;23.354;2022-10-16T04:50:47;95572.25;;;7.90;100.00
20622;BME280;10470;42.670;23.354;2022-10-16T04:53:13;95578.84;;;7.88;100.00
20622;BME280;10470;42.670;23.354;2022-10-16T04:55:39;95573.66;;;7.98;100.00
20622;BME280;10470;42.670;23.354;2022-10-16T04:58:07;95574.44;;;7.98;100.00
20622;BME280;10470;42.670;23.354;2022-10-16T05:00:33;95575.94;;;8.03;100.00
20622;BME280;10470;42.670;23.354;2022-10-16T05:02:59;95591.66;;;8.15;100.00
20622;BME280;10470;42.670;23.354;2022-10-16T05:05:26;95592.47;;;7.85;100.00
20622;BME280;10470;42.670;23.354;2022-10-16T05:07:52;95583.97;;;7.83;100.00
20622;BME280;10470;42.670;23.354;2022-10-16T05:10:18;95588.72;;;8.02;100.00
20622;BME280;10470;42.670;23.354;2022-10-16T05:12:44;95594.47;;;8.08;100.00
20622;BME280;10470;42.670;23.354;2022-10-16T05:15:10;95591.66;;;8.15;100.00
20622;BME280;10470;42.670;23.354;2022-10-16T05:17:36;95597.53;;;8.10;100.00
20622;BME280;10470;42.670;23.354;2022-10-16T05:20:02;95593.13;;;7.93;100.00
20622;BME280;10470;42.670;23.354;2022-10-16T05:22:28;95603.91;;;7.96;100.00
20622;BME280;10470;42.670;23.354;2022-10-16T05:24:54;95606.13;;;8.05;100.00
20622;BME280;10470;42.670;23.354;2022-10-16T05:27:19;95617.41;;;8.30;100.00
20622;BME280;10470;42.670;23.354;2022-10-16T05:29:45;95608.75;;;8.12;100.00
20622;BME280;10470;42.670;23.354;2022-10-16T05:32:15;95600.47;;;8.19;100.00
20622;BME280;10470;42.670;23.354;2022-10-16T05:34:40;95606.94;;;8.29;100.00
20622;BME280;10470;42.670;23.354;2022-10-16T05:37:06;95611.47;;;8.39;100.00
20622;BME280;10470;42.670;23.354;2022-10-16T05:39:31;95616.06;;;8.42;100.00
20622;BME280;10470;42.670;23.354;2022-10-16T05:41:57;95607.50;;;8.67;100.00
20622;BME280;10470;42.670;23.354;2022-10-16T05:44:25;95613.13;;;8.80;100.00
20622;BME280;10470;42.670;23.354;2022-10-16T05:46:51;95616.19;;;8.82;100.00
20622;BME280;10470;42.670;23.354;2022-10-16T05:49:16;95611.75;;;8.68;100.00
20622;BME280;10470;42.670;23.354;2022-10-16T05:51:42;95614.53;;;8.65;100.00
20622;BME280;10470;42.670;23.354;2022-10-16T05:54:08;95623.69;;;8.74;100.00
20622;BME280;10470;42.670;23.354;2022-10-16T05:56:34;95630.47;;;8.86;100.00
20622;BME280;10470;42.670;23.354;2022-10-16T05:59:00;95630.34;;;8.93;100.00
20622;BME280;10470;42.670;23.354;2022-10-16T06:01:26;95641.50;;;8.99;100.00
20622;BME280;10470;42.670;23.354;2022-10-16T06:03:52;95646.69;;;9.13;100.00
20622;BME280;10470;42.670;23.354;2022-10-16T06:06:19;95648.72;;;8.86;100.00
20622;BME280;10470;42.670;23.354;2022-10-16T06:08:46;95660.97;;;9.17;100.00
20622;BME280;10470;42.670;23.354;2022-10-16T06:11:18;95654.09;;;9.33;100.00
20622;BME280;10470;42.670;23.354;2022-10-16T06:13:44;95657.94;;;9.35;100.00
20622;BME280;10470;42.670;23.354;2022-10-16T06:16:11;95653.25;;;9.56;100.00
20622;BME280;10470;42.670;23.354;2022-10-16T06:18:38;95658.94;;;9.65;100.00
20622;BME280;10470;42.670;23.354;2022-10-16T06:21:12;95657.88;;;9.59;100.00
20622;BME280;10470;42.670;23.354;2022-10-16T06:23:39;95671.59;;;9.72;100.00
20622;BME280;10470;42.670;23.354;2022-10-16T06:26:08;95670.63;;;9.82;100.00
20622;BME280;10470;42.670;23.354;2022-10-16T06:28:35;95677.91;;;9.69;100.00
20622;BME280;10470;42.670;23.354;2022-10-16T06:31:01;95671.75;;;9.84;100.00
20622;BME280;10470;42.670;23.354;2022-10-16T06:33:26;95673.69;;;9.84;100.00
20622;BME280;10470;42.670;23.354;2022-10-16T06:35:52;95679.44;;;10.06;100.00
20622;BME280;10470;42.670;23.354;2022-10-16T06:38:17;95682.44;;;10.12;100.00
20622;BME280;10470;42.670;23.354;2022-10-16T06:40:43;95681.38;;;10.25;100.00
20622;BME280;10470;42.670;23.354;2022-10-16T06:43:08;95696.81;;;10.32;100.00
20622;BME280;10470;42.670;23.354;2022-10-16T06:45:34;95686.72;;;10.33;100.00
20622;BME280;10470;42.670;23.354;2022-10-16T06:47:59;95707.41;;;10.46;100.00
20622;BME280;10470;42.670;23.354;2022-10-16T06:50:25;95707.25;;;10.54;100.00
20622;BME280;10470;42.670;23.354;2022-10-16T06:52:50;95707.41;;;10.63;100.00
20622;BME280;10470;42.670;23.354;2022-10-16T06:55:16;95709.13;;;10.73;100.00
20622;BME280;10470;42.670;23.354;2022-10-16T06:57:43;95714.84;;;10.79;100.00
20622;BME280;10470;42.670;23.354;2022-10-16T07:00:09;95704.44;;;10.74;100.00
20622;BME280;10470;42.670;23.354;2022-10-16T07:02:34;95705.84;;;10.82;100.00
20622;BME280;10470;42.670;23.354;2022-10-16T07:05:00;95724.31;;;10.90;100.00
20622;BME280;10470;42.670;23.354;2022-10-16T07:07:25;95714.84;;;10.95;100.00
20622;BME280;10470;42.670;23.354;2022-10-16T07:09:52;95721.66;;;10.70;100.00
20622;BME280;10470;42.670;23.354;2022-10-16T07:12:17;95725.50;;;10.73;100.00
20622;BME280;10470;42.670;23.354;2022-10-16T07:14:43;95726.44;;;10.99;100.00
20622;BME280;10470;42.670;23.354;2022-10-16T07:17:08;95717.75;;;11.21;100.00
20622;BME280;10470;42.670;23.354;2022-10-16T07:19:34;95730.00;;;11.12;100.00
20622;BME280;10470;42.670;23.354;2022-10-16T07:22:00;95716.44;;;11.25;100.00
20622;BME280;10470;42.670;23.354;2022-10-16T07:24:25;95728.28;;;11.35;100.00
20622;BME280;10470;42.670;23.354;2022-10-16T07:26:51;95726.47;;;11.28;100.00
20622;BME280;10470;42.670;23.354;2022-10-16T07:29:19;95737.03;;;11.43;100.00
20622;BME280;10470;42.670;23.354;2022-10-16T07:31:45;95728.53;;;11.41;100.00
20622;BME280;10470;42.670;23.354;2022-10-16T07:34:13;95730.31;;;11.31;100.00
20622;BME280;10470;42.670;23.354;2022-10-16T07:36:39;95737.88;;;11.56;100.00
20622;BME280;10470;42.670;23.354;2022-10-16T07:39:05;95735.53;;;11.71;100.00
20622;BME280;10470;42.670;23.354;2022-10-16T07:41:30;95736.53;;;11.93;100.00
20622;BME280;10470;42.670;23.354;2022-10-16T07:43:58;95726.47;;;12.03;100.00
20622;BME280;10470;42.670;23.354;2022-10-16T07:46:25;95751.75;;;12.07;100.00
20622;BME280;10470;42.670;23.354;2022-10-16T07:48:51;95743.22;;;12.05;100.00
20622;BME280;10470;42.670;23.354;2022-10-16T07:51:19;95735.44;;;12.03;100.00
20622;BME280;10470;42.670;23.354;2022-10-16T07:53:46;95732.09;;;12.12;100.00
20622;BME280;10470;42.670;23.354;2022-10-16T07:56:13;95745.22;;;12.17;100.00
20622;BME280;10470;42.670;23.354;2022-10-16T07:58:39;95739.25;;;12.35;100.00
20622;BME280;10470;42.670;23.354;2022-10-16T08:01:07;95747.22;;;12.55;100.00
20622;BME280;10470;42.670;23.354;2022-10-16T08:03:33;95746.56;;;12.38;100.00
20622;BME280;10470;42.670;23.354;2022-10-16T08:06:00;95750.28;;;12.57;100.00
20622;BME280;10470;42.670;23.354;2022-10-16T08:08:26;95755.66;;;12.48;100.00
20622;BME280;10470;42.670;23.354;2022-10-16T08:10:52;95752.38;;;12.53;100.00
20622;BME280;10470;42.670;23.354;2022-10-16T08:13:17;95744.28;;;12.62;100.00
20622;BME280;10470;42.670;23.354;2022-10-16T08:15:43;95752.47;;;13.01;100.00
20622;BME280;10470;42.670;23.354;2022-10-16T08:18:11;95743.53;;;12.87;100.00
20622;BME280;10470;42.670;23.354;2022-10-16T08:20:36;95744.50;;;12.94;100.00
20622;BME280;10470;42.670;23.354;2022-10-16T08:23:02;95747.22;;;12.94;100.00
20622;BME280;10470;42.670;23.354;2022-10-16T08:25:28;95744.81;;;13.08;100.00
20622;BME280;10470;42.670;23.354;2022-10-16T08:27:54;95747.00;;;13.26;100.00
20622;BME280;10470;42.670;23.354;2022-10-16T08:30:21;95753.97;;;13.40;100.00
20622;BME280;10470;42.670;23.354;2022-10-16T08:32:47;95746.31;;;13.35;100.00
20622;BME280;10470;42.670;23.354;2022-10-16T08:35:14;95746.16;;;13.51;100.00
20622;BME280;10470;42.670;23.354;2022-10-16T08:37:40;95748.41;;;13.66;100.00
20622;BME280;10470;42.670;23.354;2022-10-16T08:40:11;95750.84;;;13.64;100.00
20622;BME280;10470;42.670;23.354;2022-10-16T08:50:52;95757.91;;;14.09;100.00
20622;BME280;10470;42.670;23.354;2022-10-16T08:53:24;95730.59;;;14.05;100.00
20622;BME280;10470;42.670;23.354;2022-10-16T08:55:55;95756.66;;;14.32;100.00
20622;BME280;10470;42.670;23.354;2022-10-16T08:58:27;95762.56;;;14.52;100.00
20622;BME280;10470;42.670;23.354;2022-10-16T09:00:55;95751.72;;;14.49;100.00
20622;BME280;10470;42.670;23.354;2022-10-16T09:14:45;95758.31;;;14.29;100.00
20622;BME280;10470;42.670;23.354;2022-10-16T09:18:05;95755.59;;;14.60;100.00
20622;BME280;10470;42.670;23.354;2022-10-16T09:20:26;95745.72;;;14.94;100.00
20622;BME280;10470;42.670;23.354;2022-10-16T09:23:26;95750.63;;;15.08;100.00
20622;BME280;10470;42.670;23.354;2022-10-16T09:25:53;95756.31;;;15.23;100.00
20622;BME280;10470;42.670;23.354;2022-10-16T09:28:19;95752.19;;;15.19;100.00
20622;BME280;10470;42.670;23.354;2022-10-16T09:30:45;95737.19;;;15.01;100.00
20622;BME280;10470;42.670;23.354;2022-10-16T09:33:12;95751.88;;;15.17;100.00
20622;BME280;10470;42.670;23.354;2022-10-16T09:38:06;95757.13;;;15.61;100.00
20622;BME280;10470;42.670;23.354;2022-10-16T09:40:37;95748.13;;;15.60;100.00
20622;BME280;10470;42.670;23.354;2022-10-16T09:45:29;95747.38;;;15.60;100.00
20622;BME280;10470;42.670;23.354;2022-10-16T09:47:54;95747.22;;;15.54;100.00
20622;BME280;10470;42.670;23.354;2022-10-16T09:50:29;95745.38;;;15.60;100.00
20622;BME280;10470;42.670;23.354;2022-10-16T09:53:14;95740.69;;;15.88;100.00
20622;BME280;10470;42.670;23.354;2022-10-16T09:55:53;95723.13;;;15.77;100.00
20622;BME280;10470;42.670;23.354;2022-10-16T09:58:22;95732.75;;;15.81;100.00
20622;BME280;10470;42.670;23.354;2022-10-16T10:00:52;95749.09;;;16.03;100.00
20622;BME280;10470;42.670;23.354;2022-10-16T10:03:39;95742.47;;;16.28;100.00
20622;BME280;10470;42.670;23.354;2022-10-16T10:09:25;95731.50;;;16.19;100.00
20622;BME280;10470;42.670;23.354;2022-10-16T10:17:16;95725.66;;;16.87;98.02
20622;BME280;10470;42.670;23.354;2022-10-16T10:19:51;95722.47;;;17.13;96.84
20622;BME280;10470;42.670;23.354;2022-10-16T10:33:07;95722.19;;;17.83;73.56
20622;BME280;10470;42.670;23.354;2022-10-16T10:46:39;95719.66;;;19.74;67.96
20622;BME280;10470;42.670;23.354;2022-10-16T10:56:58;95705.53;;;20.19;64.88
20622;BME280;10470;42.670;23.354;2022-10-16T10:59:37;95726.66;;;20.74;62.36
20622;BME280;10470;42.670;23.354;2022-10-16T11:02:40;95711.31;;;20.73;61.92
20622;BME280;10470;42.670;23.354;2022-10-16T11:08:03;95700.69;;;20.71;58.39
20622;BME280;10470;42.670;23.354;2022-10-16T11:11:00;95703.69;;;21.05;57.31
20622;BME280;10470;42.670;23.354;2022-10-16T11:13:32;95698.38;;;20.64;54.53
20622;BME280;10470;42.670;23.354;2022-10-16T11:16:03;95698.25;;;20.21;53.42
20622;BME280;10470;42.670;23.354;2022-10-16T11:18:51;95694.44;;;20.77;50.94
20622;BME280;10470;42.670;23.354;2022-10-16T11:21:21;95692.75;;;20.90;53.46
20622;BME280;10470;42.670;23.354;2022-10-16T11:23:55;95687.63;;;21.09;55.86
20622;BME280;10470;42.670;23.354;2022-10-16T11:26:28;95689.16;;;21.70;57.06
20622;BME280;10470;42.670;23.354;2022-10-16T11:28:56;95689.06;;;22.36;55.41
20622;BME280;10470;42.670;23.354;2022-10-16T11:34:28;95681.25;;;22.40;53.64
20622;BME280;10470;42.670;23.354;2022-10-16T11:37:14;95691.63;;;22.56;54.49
20622;BME280;10470;42.670;23.354;2022-10-16T11:39:43;95689.28;;;22.15;53.79
20622;BME280;10470;42.670;23.354;2022-10-16T11:42:16;95697.69;;;22.66;52.54
20622;BME280;10470;42.670;23.354;2022-10-16T11:48:36;95691.84;;;22.92;52.95
20622;BME280;10470;42.670;23.354;2022-10-16T11:50:39;95697.66;;;22.43;51.72
20622;BME280;10470;42.670;23.354;2022-10-16T11:56:12;95696.66;;;22.97;48.91
20622;BME280;10470;42.670;23.354;2022-10-16T11:58:52;95710.00;;;23.38;46.83
20622;BME280;10470;42.670;23.354;2022-10-16T12:08:53;95694.84;;;24.39;48.54
20622;BME280;10470;42.670;23.354;2022-10-16T12:11:35;95699.00;;;24.62;46.62
20622;BME280;10470;42.670;23.354;2022-10-16T12:19:19;95699.81;;;25.12;44.81
20622;BME280;10470;42.670;23.354;2022-10-16T12:21:45;95698.34;;;25.05;45.28
20622;BME280;10470;42.670;23.354;2022-10-16T12:24:39;95698.03;;;24.84;45.96
20622;BME280;10470;42.670;23.354;2022-10-16T12:27:29;95693.09;;;25.26;44.84
20622;BME280;10470;42.670;23.354;2022-10-16T12:29:59;95696.06;;;24.79;44.68
20622;BME280;10470;42.670;23.354;2022-10-16T12:32:32;95701.88;;;24.81;44.42
20622;BME280;10470;42.670;23.354;2022-10-16T12:34:59;95698.34;;;25.05;43.98
20622;BME280;10470;42.670;23.354;2022-10-16T12:37:36;95703.56;;;25.88;43.24
20622;BME280;10470;42.670;23.354;2022-10-16T12:40:14;95698.34;;;25.05;43.90
20622;BME280;10470;42.670;23.354;2022-10-16T12:42:41;95702.00;;;25.25;44.23
20622;BME280;10470;42.670;23.354;2022-10-16T12:47:54;95700.56;;;25.43;44.01
20622;BME280;10470;42.670;23.354;2022-10-16T12:50:27;95705.03;;;25.27;44.17
20622;BME280;10470;42.670;23.354;2022-10-16T12:52:53;95701.28;;;25.19;43.73
20622;BME280;10470;42.670;23.354;2022-10-16T12:55:21;95706.75;;;25.55;43.54
20622;BME280;10470;42.670;23.354;2022-10-16T13:00:44;95712.00;;;25.39;43.16
20622;BME280;10470;42.670;23.354;2022-10-16T13:09:12;95709.31;;;25.96;41.80
20622;BME280;10470;42.670;23.354;2022-10-16T13:11:57;95715.03;;;26.61;41.68
20622;BME280;10470;42.670;23.354;2022-10-16T13:15:28;95720.03;;;25.92;41.90
20622;BME280;10470;42.670;23.354;2022-10-16T13:17:49;95710.75;;;25.59;41.66
20622;BME280;10470;42.670;23.354;2022-10-16T13:28:32;95716.47;;;26.67;39.40
20622;BME280;10470;42.670;23.354;2022-10-16T13:30:59;95714.97;;;26.79;39.62
20622;BME280;10470;42.670;23.354;2022-10-16T13:33:41;95708.41;;;26.77;39.79
20622;BME280;10470;42.670;23.354;2022-10-16T13:36:24;95715.53;;;25.64;41.20
20622;BME280;10470;42.670;23.354;2022-10-16T13:41:38;95720.41;;;26.58;39.96
20622;BME280;10470;42.670;23.354;2022-10-16T13:44:04;95718.91;;;26.01;40.67
20622;BME280;10470;42.670;23.354;2022-10-16T13:46:30;95715.81;;;25.85;40.87
20622;BME280;10470;42.670;23.354;2022-10-16T13:49:12;95722.31;;;27.55;38.56
20622;BME280;10470;42.670;23.354;2022-10-16T13:51:38;95723.72;;;27.88;38.42
20622;BME280;10470;42.670;23.354;2022-10-16T13:54:04;95719.50;;;28.56;37.46
20622;BME280;10470;42.670;23.354;2022-10-16T13:56:31;95716.50;;;28.74;37.15
20622;BME280;10470;42.670;23.354;2022-10-16T13:59:06;95731.81;;;29.36;36.46
20622;BME280;10470;42.670;23.354;2022-10-16T14:01:46;95734.88;;;28.28;36.75
20622;BME280;10470;42.670;23.354;2022-10-16T14:04:13;95729.13;;;30.24;35.31
20622;BME280;10470;42.670;23.354;2022-10-16T14:06:45;95728.47;;;30.47;33.91
20622;BME280;10470;42.670;23.354;2022-10-16T14:09:28;95728.50;;;29.74;35.17
20622;BME280;10470;42.670;23.354;2022-10-16T14:12:03;95735.66;;;30.19;34.85
20622;BME280;10470;42.670;23.354;2022-10-16T14:14:40;95733.59;;;29.26;34.72
20622;BME280;10470;42.670;23.354;2022-10-16T14:17:06;95735.34;;;27.39;36.43
20622;BME280;10470;42.670;23.354;2022-10-16T14:19:38;95733.75;;;27.57;35.93
20622;BME280;10470;42.670;23.354;2022-10-16T14:24:53;95735.84;;;24.50;39.18
20622;BME280;10470;42.670;23.354;2022-10-16T14:27:36;95734.50;;;23.51;40.77
20622;BME280;10470;42.670;23.354;2022-10-16T14:30:21;95732.53;;;23.18;41.29
20622;BME280;10470;42.670;23.354;2022-10-16T14:32:58;95739.13;;;22.86;41.92
20622;BME280;10470;42.670;23.354;2022-10-16T14:35:33;95728.13;;;22.10;42.96
20622;BME280;10470;42.670;23.354;2022-10-16T14:38:01;95733.13;;;21.94;42.94
20622;BME280;10470;42.670;23.354;2022-10-16T14:40:35;95727.38;;;21.38;43.87
20622;BME280;10470;42.670;23.354;2022-10-16T14:43:03;95733.09;;;21.34;44.50
20622;BME280;10470;42.670;23.354;2022-10-16T14:45:34;95738.53;;;21.12;44.64
20622;BME280;10470;42.670;23.354;2022-10-16T14:48:05;95732.16;;;21.06;45.37
20622;BME280;10470;42.670;23.354;2022-10-16T14:50:31;95737.25;;;20.76;45.86
20622;BME280;10470;42.670;23.354;2022-10-16T14:52:58;95732.06;;;20.89;45.93
20622;BME280;10470;42.670;23.354;2022-10-16T14:55:24;95737.03;;;20.79;46.45
20622;BME280;10470;42.670;23.354;2022-10-16T14:57:50;95742.16;;;20.92;46.72
20622;BME280;10470;42.670;23.354;2022-10-16T15:00:18;95742.03;;;20.75;47.18
20622;BME280;10470;42.670;23.354;2022-10-16T15:02:44;95736.16;;;20.67;47.10
20622;BME280;10470;42.670;23.354;2022-10-16T15:05:15;95733.13;;;20.97;47.01